Milligan, Nebraska
Current Conditions -  °F | °C
As of 3:35 AM on Saturday 29 Nov 2014 (Local Time) from KHJH Reporting Station
Clear Clear  
Wind Chill:   Ceiling: Unl
Heat Index:   Visibility: 10mi
Dew Point: -1°   Wind: 0mph
Humidity: 67%   Direction: NA
Pressure: 29.62"   Gusts: NA
Location:  40.5°N, 97.39°W
Report Text: KHJH 290935Z AUTO 00000KT 10SM CLR 05/M01 A2962 RMK AO2 T00471010
Loading
Personal Weather Stations






























Interactive Weather Map New forecast layout! Learn more

10-Day Weather Forecast

Advertisements
Track Severe Weather on mobile